createdAt,value
2022-07-26T00:01:03.186Z,23.39
2022-07-26T00:03:31.105Z,23.63
2022-07-26T00:05:59.943Z,23.75
2022-07-26T00:08:27.759Z,23.74
2022-07-26T00:10:55.593Z,22.61
2022-07-26T00:13:23.462Z,21.40
2022-07-26T00:15:53.283Z,21.09
2022-07-26T00:18:22.566Z,22.21
2022-07-26T00:20:50.697Z,22.92
2022-07-26T00:23:19.432Z,23.09
2022-07-26T00:25:47.667Z,23.34
2022-07-26T00:28:15.536Z,23.09
2022-07-26T00:30:44.125Z,22.83
2022-07-26T00:33:13.354Z,22.93
2022-07-26T00:35:41.309Z,23.11
2022-07-26T00:38:09.558Z,22.66
2022-07-26T00:40:37.397Z,23.11
2022-07-26T00:43:05.345Z,23.32
2022-07-26T00:45:33.176Z,23.45
2022-07-26T00:48:00.998Z,23.30
2022-07-26T00:50:30.502Z,23.41
2022-07-26T00:52:58.457Z,23.17
2022-07-26T00:55:26.355Z,22.97
2022-07-26T00:57:54.286Z,23.09
2022-07-26T01:00:27.688Z,22.90
2022-07-26T01:02:56.676Z,23.37
2022-07-26T01:05:25.614Z,23.38
2022-07-26T01:07:56.064Z,23.48
2022-07-26T01:10:23.894Z,23.58
2022-07-26T01:12:51.731Z,23.67
2022-07-26T01:15:19.696Z,23.59
2022-07-26T01:17:48.110Z,23.45
2022-07-26T01:20:16.825Z,23.49
2022-07-26T01:22:46.032Z,23.26
2022-07-26T01:25:13.927Z,23.44
2022-07-26T01:27:41.892Z,23.61
2022-07-26T01:30:13.599Z,23.10
2022-07-26T01:32:41.448Z,23.14
2022-07-26T01:35:11.099Z,22.82
2022-07-26T01:37:38.997Z,23.37
2022-07-26T01:40:11.236Z,23.39
2022-07-26T01:42:40.931Z,23.44
2022-07-26T01:45:10.178Z,23.58
2022-07-26T01:47:38.381Z,23.48
2022-07-26T01:50:09.809Z,23.32
2022-07-26T01:52:39.170Z,23.22
2022-07-26T01:55:09.385Z,23.38
2022-07-26T01:57:37.407Z,23.42
2022-07-26T02:00:07.378Z,23.20
2022-07-26T02:02:35.477Z,22.75
2022-07-26T02:05:03.799Z,22.75
2022-07-26T02:07:34.323Z,22.91
2022-07-26T02:10:02.196Z,23.22
2022-07-26T02:12:31.365Z,23.30
2022-07-26T02:14:59.730Z,23.01
2022-07-26T02:17:27.796Z,23.21
2022-07-26T02:19:55.739Z,23.11
2022-07-26T02:22:23.645Z,22.87
2022-07-26T02:24:52.121Z,23.04
2022-07-26T02:27:20.486Z,22.98
2022-07-26T02:29:49.845Z,23.04
2022-07-26T02:32:18.250Z,22.90
2022-07-26T02:34:46.101Z,22.67
2022-07-26T02:37:13.908Z,22.41
2022-07-26T02:39:41.827Z,22.74
2022-07-26T02:42:09.850Z,23.00
2022-07-26T02:44:37.745Z,22.85
2022-07-26T02:47:07.112Z,22.64
2022-07-26T02:49:34.952Z,22.46
2022-07-26T02:52:02.801Z,22.45
2022-07-26T02:54:30.618Z,22.39
2022-07-26T02:56:58.466Z,22.58
2022-07-26T02:59:26.247Z,22.74
2022-07-26T03:01:54.217Z,22.72
2022-07-26T03:04:23.717Z,22.45
2022-07-26T03:06:51.807Z,22.79
2022-07-26T03:09:19.682Z,22.77
2022-07-26T03:11:47.587Z,22.79
2022-07-26T03:14:15.390Z,22.19
2022-07-26T03:16:43.213Z,22.52
2022-07-26T03:19:11.025Z,22.54
2022-07-26T03:21:40.169Z,22.16
2022-07-26T03:24:08.707Z,22.50
2022-07-26T03:26:37.318Z,22.13
2022-07-26T03:29:05.176Z,22.43
2022-07-26T03:31:33.042Z,22.24
2022-07-26T03:34:03.297Z,22.51
2022-07-26T03:36:31.702Z,21.90
2022-07-26T03:39:01.036Z,22.09
2022-07-26T03:41:31.529Z,21.86
2022-07-26T03:43:59.361Z,22.28
2022-07-26T03:46:27.524Z,22.54
2022-07-26T03:48:55.697Z,22.50
2022-07-26T03:51:23.711Z,22.27
2022-07-26T03:53:51.827Z,22.37
2022-07-26T03:56:29.140Z,22.72
2022-07-26T03:58:58.340Z,22.55
2022-07-26T04:01:26.560Z,22.55
2022-07-26T04:03:54.661Z,22.94
2022-07-26T04:06:23.133Z,22.81
2022-07-26T04:08:51.250Z,22.86
2022-07-26T04:11:20.641Z,23.16
2022-07-26T04:13:48.584Z,22.78
2022-07-26T04:16:16.412Z,23.05
2022-07-26T04:18:44.792Z,22.91
2022-07-26T04:21:12.677Z,22.84
2022-07-26T04:23:40.568Z,23.03
2022-07-26T04:26:08.421Z,22.90
2022-07-26T04:28:37.614Z,23.35
2022-07-26T04:31:05.545Z,23.32
2022-07-26T04:33:33.977Z,23.43
2022-07-26T04:36:03.240Z,23.32
2022-07-26T04:38:31.173Z,23.38
2022-07-26T04:40:59.208Z,23.33
2022-07-26T04:43:27.149Z,24.02
2022-07-26T04:45:57.381Z,23.62
2022-07-26T04:48:26.195Z,23.53
2022-07-26T04:50:54.674Z,23.42
2022-07-26T04:53:22.754Z,23.93
2022-07-26T04:55:50.591Z,24.45
2022-07-26T04:58:19.209Z,24.45
2022-07-26T05:01:08.997Z,23.92
2022-07-26T05:03:37.197Z,24.04
2022-07-26T05:06:05.531Z,24.01
2022-07-26T05:08:33.485Z,23.43
2022-07-26T05:11:01.518Z,23.42
2022-07-26T05:13:29.778Z,23.66
2022-07-26T05:15:58.459Z,23.98
2022-07-26T05:18:27.002Z,23.75
2022-07-26T05:20:58.586Z,23.60
2022-07-26T05:23:26.438Z,23.29
2022-07-26T05:25:55.351Z,23.30
2022-07-26T05:28:23.263Z,23.85
2022-07-26T05:30:51.458Z,23.69
2022-07-26T05:33:19.563Z,23.99
2022-07-26T05:35:47.450Z,24.40
2022-07-26T05:38:16.609Z,24.53
2022-07-26T05:40:50.098Z,25.17
2022-07-26T05:43:18.558Z,24.35
2022-07-26T05:45:46.494Z,24.28
2022-07-26T05:48:14.412Z,24.31
2022-07-26T05:50:42.383Z,23.85
2022-07-26T05:53:10.315Z,24.02
2022-07-26T05:55:39.453Z,24.09
2022-07-26T05:58:07.423Z,23.74
2022-07-26T06:00:35.400Z,24.16
2022-07-26T06:03:21.878Z,24.40
2022-07-26T06:05:50.919Z,24.43
2022-07-26T06:08:19.851Z,24.16
2022-07-26T06:10:50.890Z,23.75
2022-07-26T06:13:18.967Z,24.59
2022-07-26T06:15:47.578Z,24.90
2022-07-26T06:18:15.922Z,24.59
2022-07-26T06:20:46.925Z,24.23
2022-07-26T06:23:15.388Z,24.11
2022-07-26T06:25:43.345Z,24.64
2022-07-26T06:28:12.552Z,24.40
2022-07-26T06:30:41.188Z,24.54
2022-07-26T06:33:09.585Z,24.01
2022-07-26T06:35:39.179Z,24.68
2022-07-26T06:38:08.322Z,24.64
2022-07-26T06:40:37.076Z,23.78
2022-07-26T06:43:05.800Z,23.77
2022-07-26T06:45:35.281Z,24.32
2022-07-26T06:48:03.181Z,24.06
2022-07-26T06:50:31.272Z,24.22
2022-07-26T06:52:59.134Z,24.24
2022-07-26T06:55:27.067Z,24.23
2022-07-26T06:57:54.889Z,23.87
2022-07-26T07:00:23.417Z,23.50
2022-07-26T07:02:52.727Z,23.29
2022-07-26T07:05:20.734Z,23.20
2022-07-26T07:07:48.683Z,23.73
2022-07-26T07:10:16.871Z,23.82
2022-07-26T07:12:47.016Z,23.80
2022-07-26T07:15:15.216Z,23.40
2022-07-26T07:17:43.046Z,23.79
2022-07-26T07:20:13.388Z,24.16
2022-07-26T07:22:41.221Z,23.59
2022-07-26T07:25:09.639Z,24.03
2022-07-26T07:27:37.490Z,24.12
2022-07-26T07:30:06.711Z,24.27
2022-07-26T07:32:35.523Z,24.87
2022-07-26T07:35:03.442Z,25.15
2022-07-26T07:37:52.961Z,25.11
2022-07-26T07:40:22.524Z,25.32
2022-07-26T07:42:50.537Z,24.81
2022-07-26T07:45:18.881Z,25.13
2022-07-26T07:47:46.820Z,25.74
2022-07-26T07:50:14.701Z,25.35
2022-07-26T07:52:43.877Z,25.35
2022-07-26T07:55:40.500Z,24.81
2022-07-26T07:58:00.796Z,24.57
2022-07-26T08:00:28.747Z,25.40
2022-07-26T08:02:56.623Z,25.02
2022-07-26T08:05:24.833Z,25.19
2022-07-26T08:07:54.242Z,25.55
2022-07-26T08:10:23.064Z,25.66
2022-07-26T08:12:51.258Z,25.06
2022-07-26T08:15:21.204Z,25.34
2022-07-26T08:17:54.865Z,24.81
2022-07-26T08:20:25.027Z,24.68
2022-07-26T08:22:54.768Z,24.91
2022-07-26T08:25:22.726Z,24.39
2022-07-26T08:28:03.153Z,24.61
2022-07-26T08:30:32.161Z,24.95
2022-07-26T08:33:00.483Z,24.81
2022-07-26T08:35:30.053Z,24.30
2022-07-26T08:37:59.773Z,24.35
2022-07-26T08:40:27.706Z,24.78
2022-07-26T08:42:58.114Z,24.27
2022-07-26T08:45:28.913Z,24.28
2022-07-26T08:48:16.834Z,24.30
2022-07-26T08:50:45.787Z,24.22
2022-07-26T08:53:16.565Z,23.58
2022-07-26T08:56:05.986Z,23.70
2022-07-26T08:58:36.062Z,24.66
2022-07-26T09:01:07.821Z,24.21
2022-07-26T09:03:37.941Z,24.31
2022-07-26T09:06:18.003Z,24.31
2022-07-26T09:08:51.142Z,24.13
2022-07-26T09:11:33.946Z,24.81
2022-07-26T09:14:05.488Z,25.01
2022-07-26T09:16:38.646Z,24.94
2022-07-26T09:19:19.248Z,25.33
2022-07-26T09:21:47.433Z,24.56
2022-07-26T09:24:32.482Z,25.05
2022-07-26T09:27:03.563Z,24.99
2022-07-26T09:29:32.248Z,24.82
2022-07-26T09:32:16.823Z,24.85
2022-07-26T09:34:52.637Z,24.59
2022-07-26T09:37:35.895Z,24.83
2022-07-26T09:40:10.419Z,24.89
2022-07-26T09:42:54.526Z,24.84
2022-07-26T09:45:22.505Z,25.03
2022-07-26T09:47:50.562Z,25.61
2022-07-26T09:50:22.366Z,25.57
2022-07-26T09:53:08.467Z,25.47
2022-07-26T09:55:56.159Z,25.89
2022-07-26T09:58:25.423Z,24.83
2022-07-26T10:00:53.268Z,25.23
2022-07-26T10:03:21.102Z,25.52
2022-07-26T10:05:48.883Z,25.32
2022-07-26T10:08:18.777Z,25.88
2022-07-26T10:10:56.609Z,25.71
2022-07-26T10:13:27.430Z,25.73
2022-07-26T10:15:56.654Z,26.04
2022-07-26T10:18:47.274Z,25.26
2022-07-26T10:21:26.754Z,25.49
2022-07-26T10:23:57.599Z,25.36
2022-07-26T10:26:43.149Z,25.25
2022-07-26T10:29:26.487Z,25.37
2022-07-26T10:32:20.440Z,25.53
2022-07-26T10:34:49.159Z,25.81
2022-07-26T10:37:30.405Z,25.94
2022-07-26T10:40:22.521Z,26.60
2022-07-26T10:42:51.702Z,26.48
2022-07-26T10:45:23.571Z,26.81
2022-07-26T10:48:24.498Z,26.19
2022-07-26T10:50:54.812Z,26.50
2022-07-26T10:53:25.797Z,26.78
2022-07-26T10:55:56.726Z,27.14
2022-07-26T10:58:27.958Z,26.93
2022-07-26T11:00:59.140Z,26.89
2022-07-26T11:03:38.985Z,26.65
2022-07-26T11:06:12.997Z,27.08
2022-07-26T11:08:45.897Z,27.15
2022-07-26T11:11:28.837Z,27.67
2022-07-26T11:14:08.357Z,27.21
2022-07-26T11:16:41.709Z,26.93
2022-07-26T11:19:21.047Z,27.51
2022-07-26T11:21:55.759Z,27.77
2022-07-26T11:24:23.946Z,28.38
2022-07-26T11:26:52.339Z,27.47
2022-07-26T11:29:38.445Z,27.33
2022-07-26T11:32:18.992Z,27.44
2022-07-26T11:34:47.872Z,27.14
2022-07-26T11:37:15.981Z,26.45
2022-07-26T11:39:43.806Z,26.56
2022-07-26T11:42:16.176Z,25.85
2022-07-26T11:44:47.830Z,25.46
2022-07-26T11:47:19.928Z,25.79
2022-07-26T11:49:51.845Z,26.70
2022-07-26T11:52:31.089Z,26.64
2022-07-26T11:54:58.903Z,27.04
2022-07-26T11:57:31.247Z,26.84
2022-07-26T12:00:01.647Z,27.07
2022-07-26T12:02:31.338Z,26.68
2022-07-26T12:05:16.514Z,26.94
2022-07-26T12:07:59.403Z,26.66
2022-07-26T12:10:28.231Z,26.09
2022-07-26T12:13:13.559Z,26.04
2022-07-26T12:15:54.351Z,25.54
2022-07-26T12:18:26.960Z,24.26
2022-07-26T12:21:04.570Z,22.97
2022-07-26T12:23:45.666Z,23.29
2022-07-26T12:26:25.386Z,23.06
2022-07-26T12:28:53.945Z,22.31
2022-07-26T12:31:31.924Z,21.75
2022-07-26T12:34:00.311Z,21.66
2022-07-26T12:36:29.827Z,21.38
2022-07-26T12:38:59.617Z,21.40
2022-07-26T12:41:36.632Z,21.42
2022-07-26T12:44:05.858Z,21.50
2022-07-26T12:46:36.691Z,21.38
2022-07-26T12:49:05.882Z,21.42
2022-07-26T12:51:34.715Z,22.12
2022-07-26T12:54:03.463Z,21.61
2022-07-26T12:56:31.306Z,21.75
2022-07-26T12:59:01.512Z,21.74
2022-07-26T13:01:30.933Z,22.14
2022-07-26T13:04:01.582Z,21.62
2022-07-26T13:06:29.511Z,21.84
2022-07-26T13:08:57.438Z,22.42
2022-07-26T13:11:25.599Z,22.44
2022-07-26T13:13:53.668Z,22.32
2022-07-26T13:16:21.611Z,22.18
2022-07-26T13:18:49.677Z,22.37
2022-07-26T13:21:18.862Z,21.96
2022-07-26T13:23:46.777Z,21.93
2022-07-26T13:26:14.676Z,22.29
2022-07-26T13:28:42.556Z,21.95
2022-07-26T13:31:10.814Z,22.61
2022-07-26T13:33:39.527Z,22.44
2022-07-26T13:36:07.743Z,22.68
2022-07-26T13:38:36.962Z,22.48
2022-07-26T13:41:05.348Z,22.45
2022-07-26T13:43:33.363Z,22.71
2022-07-26T13:46:01.290Z,22.99
2022-07-26T13:48:29.756Z,22.90
2022-07-26T13:50:58.511Z,22.64
2022-07-26T13:53:26.842Z,22.97
2022-07-26T13:55:55.982Z,22.55
2022-07-26T13:58:23.864Z,22.76
2022-07-26T14:00:51.810Z,22.35
2022-07-26T14:03:19.714Z,22.75
2022-07-26T14:05:47.892Z,22.44
2022-07-26T14:08:15.746Z,22.97
2022-07-26T14:10:43.681Z,22.91
2022-07-26T14:13:13.090Z,23.05
2022-07-26T14:15:40.943Z,23.42
2022-07-26T14:18:08.762Z,23.71
2022-07-26T14:20:37.239Z,23.60
2022-07-26T14:23:05.067Z,22.73
2022-07-26T14:25:33.390Z,23.16
2022-07-26T14:28:01.371Z,23.63
2022-07-26T14:30:30.651Z,23.61
2022-07-26T14:32:58.514Z,23.62
2022-07-26T14:35:26.439Z,23.36
2022-07-26T14:37:55.159Z,23.47
2022-07-26T14:40:23.028Z,23.68
2022-07-26T14:42:50.831Z,23.05
2022-07-26T14:45:18.685Z,24.04
2022-07-26T14:47:47.902Z,23.70
2022-07-26T14:50:16.670Z,23.70
2022-07-26T14:52:48.445Z,23.78
2022-07-26T14:55:23.097Z,23.72
2022-07-26T14:57:52.766Z,24.21
2022-07-26T15:00:20.622Z,24.02
2022-07-26T15:02:50.809Z,24.09
2022-07-26T15:05:19.642Z,24.38
2022-07-26T15:07:47.959Z,24.43
2022-07-26T15:10:16.745Z,24.21
2022-07-26T15:12:45.118Z,24.50
2022-07-26T15:15:13.185Z,23.71
2022-07-26T15:17:40.969Z,23.59
2022-07-26T15:20:10.577Z,23.98
2022-07-26T15:22:38.466Z,23.90
2022-07-26T15:25:08.094Z,24.19
2022-07-26T15:27:36.030Z,24.36
2022-07-26T15:30:10.107Z,23.95
2022-07-26T15:32:42.238Z,23.42
2022-07-26T15:35:14.233Z,23.70
2022-07-26T15:37:44.554Z,24.34
2022-07-26T15:40:13.806Z,24.72
2022-07-26T15:42:45.723Z,24.78
2022-07-26T15:45:14.661Z,23.99
2022-07-26T15:47:54.714Z,23.71
2022-07-26T15:50:26.151Z,23.81
2022-07-26T15:52:54.349Z,24.01
2022-07-26T15:55:22.219Z,23.84
2022-07-26T15:57:50.229Z,23.52
2022-07-26T16:00:19.126Z,24.05
2022-07-26T16:02:48.108Z,24.08
2022-07-26T16:05:17.198Z,23.74
2022-07-26T16:07:47.817Z,24.15
2022-07-26T16:10:16.546Z,24.08
2022-07-26T16:12:44.992Z,23.99
2022-07-26T16:15:13.771Z,24.04
2022-07-26T16:17:41.672Z,23.46
2022-07-26T16:20:10.558Z,24.11
2022-07-26T16:22:41.017Z,24.27
2022-07-26T16:25:13.642Z,24.37
2022-07-26T16:27:43.627Z,24.89
2022-07-26T16:30:13.476Z,24.84
2022-07-26T16:32:41.794Z,24.64
2022-07-26T16:35:11.130Z,24.22
2022-07-26T16:37:39.897Z,24.48
2022-07-26T16:40:11.351Z,24.36
2022-07-26T16:42:39.217Z,24.29
2022-07-26T16:45:09.687Z,24.14
2022-07-26T16:47:37.645Z,24.04
2022-07-26T16:50:06.632Z,24.43
2022-07-26T16:52:37.767Z,24.39
2022-07-26T16:55:10.677Z,24.72
2022-07-26T16:57:40.664Z,24.09
2022-07-26T17:00:11.864Z,24.22
2022-07-26T17:02:40.957Z,24.37
2022-07-26T17:05:10.541Z,24.49
2022-07-26T17:07:38.795Z,24.72
2022-07-26T17:10:09.861Z,24.23
2022-07-26T17:12:39.553Z,23.82
2022-07-26T17:15:10.278Z,24.14
2022-07-26T17:17:38.380Z,23.93
2022-07-26T17:20:08.358Z,24.15
2022-07-26T17:22:36.175Z,23.87
2022-07-26T17:25:05.025Z,23.67
2022-07-26T17:27:32.845Z,24.31
2022-07-26T17:30:06.537Z,23.85
2022-07-26T17:32:35.959Z,23.16
2022-07-26T17:35:03.832Z,22.93
2022-07-26T17:37:31.680Z,23.02
2022-07-26T17:40:01.785Z,23.27
2022-07-26T17:42:31.622Z,23.45
2022-07-26T17:45:00.739Z,23.45
2022-07-26T17:47:30.662Z,23.14
2022-07-26T17:52:49.597Z,23.08
2022-07-26T17:55:19.452Z,22.90
2022-07-26T17:57:49.687Z,23.36
2022-07-26T18:00:21.789Z,23.06
2022-07-26T18:02:50.344Z,22.90
2022-07-26T18:05:19.478Z,23.21
2022-07-26T18:07:47.470Z,23.32
2022-07-26T18:10:15.406Z,23.31
2022-07-26T18:12:43.244Z,23.21
2022-07-26T18:15:12.023Z,23.15
2022-07-26T18:17:41.314Z,23.33
2022-07-26T18:20:11.104Z,23.50
2022-07-26T18:22:39.869Z,23.49
2022-07-26T18:25:09.017Z,22.99
2022-07-26T18:27:40.038Z,23.29
2022-07-26T18:30:09.021Z,23.83
2022-07-26T18:32:36.864Z,23.83
2022-07-26T18:35:07.121Z,23.83
2022-07-26T18:37:37.468Z,23.87
2022-07-26T18:40:07.305Z,23.48
2022-07-26T18:42:36.283Z,23.07
2022-07-26T18:45:04.849Z,22.49
2022-07-26T18:47:32.777Z,22.53
2022-07-26T18:50:00.595Z,22.39
2022-07-26T18:52:32.465Z,22.60
2022-07-26T18:55:06.555Z,22.49
2022-07-26T18:57:35.080Z,22.48
2022-07-26T19:00:04.676Z,23.02
2022-07-26T19:02:32.729Z,23.21
2022-07-26T19:05:03.423Z,23.24
2022-07-26T19:07:32.665Z,23.30
2022-07-26T19:10:01.292Z,23.16
2022-07-26T19:12:29.584Z,23.30
2022-07-26T19:14:59.928Z,23.31
2022-07-26T19:17:30.163Z,22.34
2022-07-26T19:20:01.071Z,22.27
2022-07-26T19:22:30.422Z,22.45
2022-07-26T19:24:59.668Z,22.79
2022-07-26T19:27:28.667Z,22.87
2022-07-26T19:29:57.181Z,23.07
2022-07-26T19:32:29.048Z,22.81
2022-07-26T19:35:02.176Z,22.77
2022-07-26T19:37:30.205Z,22.77
2022-07-26T19:40:03.632Z,22.37
2022-07-26T19:42:32.829Z,22.54
2022-07-26T19:45:01.069Z,22.89
2022-07-26T19:47:29.746Z,22.51
2022-07-26T19:49:58.643Z,22.74
2022-07-26T19:52:26.474Z,22.51
2022-07-26T19:54:54.537Z,22.74
2022-07-26T19:57:24.141Z,22.54
2022-07-26T19:59:51.997Z,22.43
2022-07-26T20:02:20.045Z,21.97
2022-07-26T20:04:50.622Z,22.07
2022-07-26T20:07:19.745Z,21.74
2022-07-26T20:09:48.129Z,22.04
2022-07-26T20:12:16.563Z,21.89
2022-07-26T20:14:49.132Z,21.30
2022-07-26T20:17:17.604Z,21.49
2022-07-26T20:19:45.743Z,21.86
2022-07-26T20:22:13.650Z,21.58
2022-07-26T20:24:41.539Z,21.49
2022-07-26T20:27:09.628Z,21.66
2022-07-26T20:29:37.679Z,21.74
2022-07-26T20:32:07.985Z,21.83
2022-07-26T20:34:35.822Z,21.58
2022-07-26T20:37:04.192Z,21.72
2022-07-26T20:39:32.201Z,21.83
2022-07-26T20:42:01.526Z,21.44
2022-07-26T20:44:29.639Z,21.78
2022-07-26T20:46:57.551Z,21.65
2022-07-26T20:49:26.745Z,21.48
2022-07-26T20:51:54.710Z,21.47
2022-07-26T20:54:22.659Z,21.53
2022-07-26T20:56:50.748Z,21.77
2022-07-26T20:59:18.767Z,21.72
2022-07-26T21:01:46.719Z,21.58
2022-07-26T21:04:14.698Z,21.58
2022-07-26T21:06:44.449Z,21.46
2022-07-26T21:09:13.028Z,21.14
2022-07-26T21:11:42.383Z,21.24
2022-07-26T21:14:10.334Z,21.19
2022-07-26T21:16:38.764Z,20.54
2022-07-26T21:19:06.956Z,20.78
2022-07-26T21:21:38.814Z,20.69
2022-07-26T21:24:09.481Z,20.54
2022-07-26T21:26:38.085Z,20.68
2022-07-26T21:29:06.370Z,20.85
2022-07-26T21:31:34.869Z,20.40
2022-07-26T21:34:02.925Z,20.22
2022-07-26T21:36:30.906Z,20.58
2022-07-26T21:38:59.222Z,20.33
2022-07-26T21:41:28.655Z,20.25
2022-07-26T21:43:56.652Z,20.49
2022-07-26T21:46:24.843Z,20.76
2022-07-26T21:48:52.999Z,20.38
2022-07-26T21:51:21.046Z,20.17
2022-07-26T21:53:49.138Z,20.67
2022-07-26T21:56:17.259Z,20.80
2022-07-26T21:58:47.071Z,21.28
2022-07-26T22:01:16.195Z,21.44
2022-07-26T22:03:44.376Z,20.68
2022-07-26T22:06:13.083Z,20.56
2022-07-26T22:08:41.311Z,20.69
2022-07-26T22:11:09.222Z,20.30
2022-07-26T22:13:37.458Z,21.13
2022-07-26T22:16:07.725Z,20.62
2022-07-26T22:18:35.728Z,20.16
2022-07-26T22:21:03.971Z,20.43
2022-07-26T22:23:31.831Z,19.73
2022-07-26T22:26:01.964Z,19.66
2022-07-26T22:28:30.975Z,19.66
2022-07-26T22:30:59.329Z,19.69
2022-07-26T22:33:28.533Z,20.04
2022-07-26T22:35:56.495Z,20.16
2022-07-26T22:38:24.460Z,20.21
2022-07-26T22:40:52.607Z,19.69
2022-07-26T22:43:20.781Z,19.90
2022-07-26T22:45:48.704Z,20.34
2022-07-26T22:48:16.986Z,20.04
2022-07-26T22:50:46.335Z,19.63
2022-07-26T22:53:14.344Z,19.55
2022-07-26T22:55:43.959Z,19.58
2022-07-26T22:58:11.911Z,19.68
2022-07-26T23:00:40.074Z,19.47
2022-07-26T23:03:19.347Z,19.24
2022-07-26T23:05:50.654Z,19.54
2022-07-26T23:08:45.741Z,19.37
2022-07-26T23:11:08.960Z,19.70
2022-07-26T23:13:37.197Z,19.09
2022-07-26T23:16:06.193Z,19.12
2022-07-26T23:18:35.811Z,19.48
2022-07-26T23:21:05.401Z,19.18
2022-07-26T23:23:33.704Z,19.04
2022-07-26T23:26:02.104Z,19.79
2022-07-26T23:28:35.715Z,20.00
2022-07-26T23:31:04.530Z,19.93
2022-07-26T23:33:53.281Z,19.94
2022-07-26T23:36:23.939Z,19.08
2022-07-26T23:38:52.151Z,19.54
2022-07-26T23:41:20.379Z,19.22
2022-07-26T23:43:48.515Z,19.24
2022-07-26T23:46:16.773Z,19.68
2022-07-26T23:48:45.134Z,19.37
2022-07-26T23:51:13.416Z,19.01
2022-07-26T23:53:43.261Z,19.67
2022-07-26T23:56:11.200Z,20.27
2022-07-26T23:58:39.481Z,19.99
